Atmore, Alabama
Current Conditions -  °F | °C
As of 9:56 PM on Saturday 20 Dec 2014 (Local Time) from KNDZ Reporting Station
Broken Clouds Broken Clouds  
Wind Chill: 53°   Ceiling: 1500
Heat Index: 53°   Visibility: 10mi
Dew Point: 48°   Wind: 9mph
Humidity: 83%   Direction: 20°NNE
Pressure: 30.13"   Gusts: NA
Location:  31.03°N, 87.49°W
Report Text: KNDZ 210356Z AUTO 02008KT 10SM BKN015 BKN028 12/09 A3013 RMK AO2 SLP191 T01170089 $
Loading
Personal Weather Stations






























Interactive Weather Map New forecast layout! Learn more

10-Day Weather Forecast

Advertisements
Track Severe Weather on mobile